createdAt,value
2024-05-09T00:00:39.993Z,100779.42
2024-05-09T00:03:09.944Z,100776.61
2024-05-09T00:05:38.652Z,100772.84
2024-05-09T00:08:06.378Z,100769.98
2024-05-09T00:10:37.132Z,100766.52
2024-05-09T00:13:10.115Z,100761.53
2024-05-09T00:15:37.708Z,100755.01
2024-05-09T00:18:06.631Z,100749.11
2024-05-09T00:20:38.899Z,100746.67
2024-05-09T00:23:12.703Z,100747.09
2024-05-09T00:25:42.550Z,100747.41
2024-05-09T00:28:11.387Z,100741.73
2024-05-09T00:30:38.166Z,100747.73
2024-05-09T00:33:06.680Z,100746.94
2024-05-09T00:35:35.195Z,100744.23
2024-05-09T00:38:02.445Z,100743.56
2024-05-09T00:40:40.352Z,100741.59
2024-05-09T00:43:10.496Z,100741.96
2024-05-09T00:45:37.635Z,100737.65
2024-05-09T00:48:07.535Z,100734.58
2024-05-09T00:50:38.788Z,100734.15
2024-05-09T00:53:11.506Z,100734.27
2024-05-09T00:55:39.637Z,100725.77
2024-05-09T00:58:09.990Z,100722.69
2024-05-09T01:00:40.027Z,100720.67
2024-05-09T01:03:10.504Z,100723.17
2024-05-09T01:05:39.722Z,100718.77
2024-05-09T01:08:08.023Z,100713.62
2024-05-09T01:10:36.429Z,100709.96
2024-05-09T01:13:07.733Z,100704.70
2024-05-09T01:15:34.763Z,100702.10
2024-05-09T01:18:06.903Z,100704.17
2024-05-09T01:20:41.110Z,100704.50
2024-05-09T01:23:11.839Z,100703.64
2024-05-09T01:25:39.375Z,100699.61
2024-05-09T01:28:06.869Z,100695.95
2024-05-09T01:30:36.276Z,100691.02
2024-05-09T01:33:07.301Z,100688.05
2024-05-09T01:35:36.360Z,100689.38
2024-05-09T01:38:03.624Z,100686.67
2024-05-09T01:40:37.240Z,100687.10
2024-05-09T01:43:08.146Z,100682.43
2024-05-09T01:45:35.724Z,100678.39
2024-05-09T01:48:03.178Z,100680.73
2024-05-09T01:50:38.091Z,100684.66
2024-05-09T01:53:09.671Z,100683.76
2024-05-09T01:55:36.748Z,100682.91
2024-05-09T01:58:03.659Z,100686.78
2024-05-09T02:00:38.359Z,100686.95
2024-05-09T02:03:10.923Z,100687.38
2024-05-09T02:05:39.767Z,100684.55
2024-05-09T02:08:06.998Z,100685.25
2024-05-09T02:10:33.920Z,100681.33
2024-05-09T02:13:01.114Z,100682.92
2024-05-09T02:15:27.957Z,100680.75
2024-05-09T02:17:55.347Z,100680.08
2024-05-09T02:20:30.618Z,100681.87
2024-05-09T02:23:04.102Z,100682.30
2024-05-09T02:25:31.938Z,100682.02
2024-05-09T02:27:58.933Z,100679.16
2024-05-09T02:30:35.691Z,100677.05
2024-05-09T02:33:07.264Z,100673.69
2024-05-09T02:35:34.448Z,100669.88
2024-05-09T02:38:01.927Z,100671.56
2024-05-09T02:40:36.131Z,100674.70
2024-05-09T02:43:10.234Z,100675.67
2024-05-09T02:45:38.978Z,100678.84
2024-05-09T02:48:06.852Z,100675.81
2024-05-09T02:50:38.421Z,100679.05
2024-05-09T02:53:15.758Z,100675.02
2024-05-09T02:55:43.065Z,100671.80
2024-05-09T02:58:10.820Z,100672.64
2024-05-09T03:00:41.096Z,100671.70
2024-05-09T03:03:14.462Z,100674.45
2024-05-09T03:05:46.336Z,100678.06
2024-05-09T03:08:13.640Z,100676.89
2024-05-09T03:10:40.686Z,100672.55
2024-05-09T03:13:08.036Z,100672.55
2024-05-09T03:15:34.922Z,100674.36
2024-05-09T03:18:01.998Z,100676.27
2024-05-09T03:20:34.105Z,100675.16
2024-05-09T03:23:03.080Z,100675.95
2024-05-09T03:25:30.227Z,100673.20
2024-05-09T03:27:57.024Z,100675.15
2024-05-09T03:30:35.864Z,100675.34
2024-05-09T03:33:19.981Z,100677.46
2024-05-09T03:35:48.366Z,100681.32
2024-05-09T03:38:15.744Z,100679.04
2024-05-09T03:40:50.692Z,100679.05
2024-05-09T03:43:18.838Z,100678.58
2024-05-09T03:45:47.892Z,100675.38
2024-05-09T03:48:15.066Z,100674.32
2024-05-09T03:50:42.326Z,100671.67
2024-05-09T03:53:13.515Z,100667.11
2024-05-09T03:55:40.799Z,100667.55
2024-05-09T03:58:08.579Z,100665.04
2024-05-09T04:00:39.765Z,100661.81
2024-05-09T04:03:10.457Z,100661.66
2024-05-09T04:05:40.436Z,100664.32
2024-05-09T04:08:08.659Z,100667.87
2024-05-09T04:10:35.907Z,100670.36
2024-05-09T04:13:05.794Z,100667.92
2024-05-09T04:15:32.984Z,100668.30
2024-05-09T04:18:00.195Z,100666.22
2024-05-09T04:20:36.652Z,100668.98
2024-05-09T04:23:08.625Z,100664.41
2024-05-09T04:25:36.667Z,100668.52
2024-05-09T04:28:03.850Z,100677.16
2024-05-09T04:30:37.327Z,100679.46
2024-05-09T04:33:08.653Z,100684.72
2024-05-09T04:35:37.434Z,100687.36
2024-05-09T04:38:05.072Z,100693.73
2024-05-09T04:40:35.227Z,100700.64
2024-05-09T04:43:05.081Z,100696.77
2024-05-09T04:45:32.158Z,100701.27
2024-05-09T04:47:59.188Z,100705.15
2024-05-09T04:50:35.720Z,100709.08
2024-05-09T04:53:06.674Z,100704.52
2024-05-09T04:55:36.352Z,100702.29
2024-05-09T04:58:03.485Z,100702.13
2024-05-09T05:00:36.375Z,100702.98
2024-05-09T05:03:14.604Z,100702.66
2024-05-09T05:05:45.482Z,100707.38
2024-05-09T05:08:18.766Z,100708.23
2024-05-09T05:10:48.457Z,100712.79
2024-05-09T05:13:23.414Z,100714.76
2024-05-09T05:15:57.762Z,100719.11
2024-05-09T05:18:28.075Z,100718.79
2024-05-09T05:20:58.842Z,100714.55
2024-05-09T05:23:26.127Z,100709.61
2024-05-09T05:25:54.842Z,100704.46
2024-05-09T05:28:22.524Z,100704.88
2024-05-09T05:30:51.116Z,100705.31
2024-05-09T05:33:19.273Z,100710.04
2024-05-09T05:35:47.010Z,100709.88
2024-05-09T05:38:14.247Z,100710.25
2024-05-09T05:40:41.821Z,100709.71
2024-05-09T05:43:15.630Z,100709.07
2024-05-09T05:45:43.608Z,100707.80
2024-05-09T05:48:10.961Z,100706.30
2024-05-09T05:50:38.789Z,100710.80
2024-05-09T05:53:10.339Z,100713.14
2024-05-09T05:55:39.304Z,100710.27
2024-05-09T05:58:10.886Z,100715.11
2024-05-09T06:00:40.091Z,100715.16
2024-05-09T06:03:09.166Z,100714.58
2024-05-09T06:05:39.409Z,100717.55
2024-05-09T06:08:06.783Z,100718.19
2024-05-09T06:10:38.614Z,100719.36
2024-05-09T06:13:08.800Z,100718.66
2024-05-09T06:15:35.570Z,100719.89
2024-05-09T06:18:05.949Z,100717.33
2024-05-09T06:20:36.579Z,100717.28
2024-05-09T06:23:06.359Z,100718.61
2024-05-09T06:25:36.280Z,100725.19
2024-05-09T06:28:04.476Z,100726.25
2024-05-09T06:30:38.639Z,100729.81
2024-05-09T06:33:10.610Z,100729.91
2024-05-09T06:35:39.319Z,100731.35
2024-05-09T06:38:09.025Z,100729.91
2024-05-09T06:40:38.977Z,100729.06
2024-05-09T06:43:18.960Z,100724.71
2024-05-09T06:45:48.349Z,100725.19
2024-05-09T06:48:21.469Z,100723.11
2024-05-09T06:50:50.292Z,100724.48
2024-05-09T06:53:20.234Z,100722.83
2024-05-09T06:55:47.142Z,100720.34
2024-05-09T06:58:14.245Z,100720.82
2024-05-09T07:00:43.768Z,100722.04
2024-05-09T07:03:13.821Z,100715.45
2024-05-09T07:05:43.281Z,100716.84
2024-05-09T07:08:10.627Z,100714.45
2024-05-09T07:10:37.946Z,100713.54
2024-05-09T07:13:12.660Z,100715.04
2024-05-09T07:15:40.611Z,100714.71
2024-05-09T07:18:09.858Z,100711.00
2024-05-09T07:20:36.898Z,100712.59
2024-05-09T07:23:03.838Z,100712.11
2024-05-09T07:25:30.754Z,100709.08
2024-05-09T07:27:57.664Z,100709.14
2024-05-09T07:30:32.625Z,100706.80
2024-05-09T07:33:02.327Z,100707.48
2024-05-09T07:35:29.788Z,100706.06
2024-05-09T07:37:56.945Z,100706.91
2024-05-09T07:40:32.798Z,100704.36
2024-05-09T07:43:12.984Z,100709.20
2024-05-09T07:45:51.234Z,100707.23
2024-05-09T07:53:39.333Z,100698.42
2024-05-09T07:56:10.080Z,100698.84
2024-05-09T07:58:37.822Z,100704.31
2024-05-09T08:01:05.548Z,100706.27
2024-05-09T08:03:34.990Z,100706.91
2024-05-09T08:06:01.822Z,100703.69
2024-05-09T08:08:28.635Z,100706.91
2024-05-09T08:10:55.572Z,100705.31
2024-05-09T08:13:22.764Z,100704.21
2024-05-09T08:15:49.747Z,100707.41
2024-05-09T08:18:17.781Z,100711.06
2024-05-09T08:20:48.499Z,100708.16
2024-05-09T08:23:15.397Z,100706.19
2024-05-09T08:25:42.169Z,100706.40
2024-05-09T08:28:09.181Z,100709.15
2024-05-09T08:30:37.798Z,100707.81
2024-05-09T08:33:06.612Z,100710.63
2024-05-09T08:35:34.437Z,100707.38
2024-05-09T08:38:06.086Z,100712.27
2024-05-09T08:40:36.208Z,100713.91
2024-05-09T08:43:10.282Z,100713.86
2024-05-09T08:45:42.117Z,100709.94
2024-05-09T08:48:11.862Z,100705.42
2024-05-09T08:50:41.047Z,100707.70
2024-05-09T08:53:09.378Z,100706.23
2024-05-09T08:55:40.711Z,100712.54
2024-05-09T08:58:16.505Z,100710.04
2024-05-09T09:00:44.989Z,100709.80
2024-05-09T09:03:18.550Z,100710.92
2024-05-09T09:05:56.233Z,100710.13
2024-05-09T09:08:23.162Z,100711.28
2024-05-09T09:10:53.588Z,100711.50
2024-05-09T09:13:20.485Z,100707.09
2024-05-09T09:15:48.254Z,100708.16
2024-05-09T09:18:16.413Z,100710.39
2024-05-09T09:20:44.310Z,100706.84
2024-05-09T09:23:11.246Z,100703.34
2024-05-09T09:25:41.288Z,100712.50
2024-05-09T09:28:09.409Z,100711.29
2024-05-09T09:30:40.456Z,100713.71
2024-05-09T09:33:09.680Z,100710.33
2024-05-09T09:35:40.813Z,100713.50
2024-05-09T09:38:09.698Z,100710.16
2024-05-09T09:40:44.817Z,100710.75
2024-05-09T09:43:21.269Z,100708.25
2024-05-09T09:45:51.445Z,100710.28
2024-05-09T09:48:20.492Z,100716.23
2024-05-09T09:50:48.560Z,100721.22
2024-05-09T09:53:16.407Z,100722.66
2024-05-09T09:55:43.848Z,100719.52
2024-05-09T09:58:13.914Z,100726.42
2024-05-09T10:00:42.213Z,100725.36
2024-05-09T10:03:09.599Z,100730.02
2024-05-09T10:05:37.934Z,100729.61
2024-05-09T10:08:07.278Z,100729.20
2024-05-09T10:10:35.970Z,100731.70
2024-05-09T10:13:03.461Z,100729.83
2024-05-09T10:15:42.969Z,100730.09
2024-05-09T10:18:09.933Z,100729.84
2024-05-09T10:20:45.284Z,100728.33
2024-05-09T10:23:36.128Z,100729.34
2024-05-09T10:26:06.474Z,100728.02
2024-05-09T10:28:36.655Z,100730.72
2024-05-09T10:31:07.141Z,100731.73
2024-05-09T10:33:46.031Z,100731.48
2024-05-09T10:36:14.171Z,100732.05
2024-05-09T10:38:42.778Z,100732.36
2024-05-09T10:41:10.392Z,100730.98
2024-05-09T10:43:41.337Z,100732.48
2024-05-09T10:46:09.499Z,100734.80
2024-05-09T10:48:37.770Z,100735.17
2024-05-09T10:51:05.186Z,100735.65
2024-05-09T10:53:32.188Z,100729.45
2024-05-09T10:56:00.686Z,100727.33
2024-05-09T10:58:28.236Z,100723.34
2024-05-09T11:00:57.976Z,100724.89
2024-05-09T11:03:25.777Z,100724.88
2024-05-09T11:05:53.492Z,100722.77
2024-05-09T11:08:22.076Z,100715.22
2024-05-09T11:10:53.546Z,100714.64
2024-05-09T11:13:47.550Z,100711.88
2024-05-09T11:16:21.321Z,100713.79
2024-05-09T11:18:56.423Z,100715.34
2024-05-09T11:21:24.732Z,100711.35
2024-05-09T11:23:52.180Z,100710.02
2024-05-09T11:26:21.401Z,100706.67
2024-05-09T11:28:48.627Z,100704.55
2024-05-09T11:31:15.457Z,100703.02
2024-05-09T11:33:45.379Z,100703.39
2024-05-09T11:36:12.614Z,100703.61
2024-05-09T11:38:39.957Z,100703.86
2024-05-09T11:41:06.889Z,100696.80
2024-05-09T11:43:35.304Z,100690.21
2024-05-09T11:46:03.821Z,100689.32
2024-05-09T11:48:34.885Z,100685.39
2024-05-09T11:51:01.804Z,100684.49
2024-05-09T11:53:28.511Z,100684.27
2024-05-09T11:55:55.286Z,100684.38
2024-05-09T11:58:23.930Z,100682.36
2024-05-09T12:00:52.283Z,100685.91
2024-05-09T12:03:19.504Z,100682.56
2024-05-09T12:05:46.915Z,100681.66
2024-05-09T12:08:14.194Z,100688.55
2024-05-09T12:10:41.324Z,100689.02
2024-05-09T12:13:08.557Z,100688.02
2024-05-09T12:15:37.739Z,100687.44
2024-05-09T12:18:06.169Z,100684.05
2024-05-09T12:20:37.576Z,100685.58
2024-05-09T12:23:08.880Z,100685.29
2024-05-09T12:25:37.295Z,100686.05
2024-05-09T12:28:04.446Z,100681.21
2024-05-09T12:30:36.928Z,100683.39
2024-05-09T12:33:12.351Z,100684.02
2024-05-09T12:35:40.364Z,100683.27
2024-05-09T12:38:07.241Z,100684.15
2024-05-09T12:40:37.582Z,100684.79
2024-05-09T12:43:10.275Z,100684.05
2024-05-09T12:45:38.621Z,100681.66
2024-05-09T12:48:08.267Z,100683.72
2024-05-09T12:50:35.965Z,100681.71
2024-05-09T12:53:04.462Z,100676.86
2024-05-09T12:55:40.537Z,100672.14
2024-05-09T12:58:16.365Z,100669.01
2024-05-09T13:00:44.247Z,100669.11
2024-05-09T13:03:11.452Z,100664.76
2024-05-09T13:05:41.007Z,100661.36
2024-05-09T13:08:08.057Z,100659.55
2024-05-09T13:10:34.956Z,100651.43
2024-05-09T13:13:03.148Z,100649.83
2024-05-09T13:15:31.303Z,100647.82
2024-05-09T13:18:01.979Z,100648.93
2024-05-09T13:20:34.338Z,100647.88
2024-05-09T13:23:05.970Z,100647.18
2024-05-09T13:25:36.851Z,100638.23
2024-05-09T13:28:06.818Z,100640.51
2024-05-09T13:30:39.364Z,100637.33
2024-05-09T13:33:12.989Z,100635.48
2024-05-09T13:35:47.560Z,100631.55
2024-05-09T13:38:21.215Z,100633.67
2024-05-09T13:40:48.714Z,100633.04
2024-05-09T13:43:16.077Z,100637.92
2024-05-09T13:45:44.479Z,100636.55
2024-05-09T13:48:11.534Z,100636.70
2024-05-09T13:50:39.208Z,100632.95
2024-05-09T13:53:07.612Z,100632.67
2024-05-09T13:55:38.625Z,100633.27
2024-05-09T13:58:06.829Z,100636.61
2024-05-09T14:00:44.117Z,100634.86
2024-05-09T14:03:16.648Z,100635.02
2024-05-09T14:05:45.465Z,100635.70
2024-05-09T14:08:13.598Z,100635.92
2024-05-09T14:10:44.051Z,100636.45
2024-05-09T14:13:11.644Z,100637.89
2024-05-09T14:15:38.892Z,100638.41
2024-05-09T14:18:09.474Z,100643.46
2024-05-09T14:20:38.710Z,100642.19
2024-05-09T14:23:06.329Z,100646.23
2024-05-09T14:25:38.671Z,100646.08
2024-05-09T14:28:08.523Z,100649.47
2024-05-09T14:30:37.859Z,100653.55
2024-05-09T14:33:07.249Z,100650.79
2024-05-09T14:35:35.451Z,100649.30
2024-05-09T14:38:03.003Z,100643.45
2024-05-09T14:40:40.340Z,100646.75
2024-05-09T14:43:11.824Z,100649.92
2024-05-09T14:45:39.652Z,100651.78
2024-05-09T14:48:07.596Z,100649.50
2024-05-09T14:50:38.416Z,100650.93
2024-05-09T14:53:10.589Z,100650.68
2024-05-09T14:55:42.192Z,100647.70
2024-05-09T14:58:11.307Z,100653.23
2024-05-09T15:00:47.660Z,100651.58
2024-05-09T15:03:21.103Z,100651.38
2024-05-09T15:05:49.261Z,100650.37
2024-05-09T15:08:18.019Z,100654.52
2024-05-09T15:10:45.575Z,100656.52
2024-05-09T15:13:15.461Z,100656.31
2024-05-09T15:15:43.767Z,100656.20
2024-05-09T15:18:11.527Z,100663.63
2024-05-09T15:20:40.530Z,100662.04
2024-05-09T15:23:07.729Z,100660.23
2024-05-09T15:25:35.975Z,100661.52
2024-05-09T15:28:04.059Z,100658.64
2024-05-09T15:30:33.350Z,100655.14
2024-05-09T15:33:03.693Z,100655.46
2024-05-09T15:35:31.410Z,100653.29
2024-05-09T15:37:59.830Z,100653.87
2024-05-09T15:40:35.703Z,100649.79
2024-05-09T15:43:07.456Z,100647.61
2024-05-09T15:45:35.619Z,100649.25
2024-05-09T15:48:03.998Z,100644.30
2024-05-09T15:50:38.041Z,100644.90
2024-05-09T15:53:09.144Z,100647.92
2024-05-09T15:55:37.104Z,100649.89
2024-05-09T15:58:04.837Z,100650.41
2024-05-09T16:00:38.103Z,100654.71
2024-05-09T16:03:09.449Z,100650.59
2024-05-09T16:05:38.200Z,100649.84
2024-05-09T16:08:06.566Z,100646.60
2024-05-09T16:10:34.787Z,100648.09
2024-05-09T16:13:03.083Z,100647.23
2024-05-09T16:15:30.742Z,100646.67
2024-05-09T16:17:59.699Z,100641.90
2024-05-09T16:20:34.984Z,100642.48
2024-05-09T16:23:07.425Z,100643.92
2024-05-09T16:25:34.399Z,100644.44
2024-05-09T16:28:02.089Z,100644.13
2024-05-09T16:30:34.738Z,100643.17
2024-05-09T16:33:04.457Z,100648.55
2024-05-09T16:35:32.019Z,100658.42
2024-05-09T16:37:58.881Z,100661.71
2024-05-09T16:40:34.439Z,100667.34
2024-05-09T16:43:06.456Z,100676.00
2024-05-09T16:45:35.103Z,100680.36
2024-05-09T16:48:02.750Z,100681.20
2024-05-09T16:50:33.855Z,100683.38
2024-05-09T16:53:03.861Z,100683.13
2024-05-09T16:55:31.184Z,100687.16
2024-05-09T16:57:58.542Z,100691.08
2024-05-09T17:00:35.686Z,100691.15
2024-05-09T17:03:09.613Z,100691.36
2024-05-09T17:05:37.108Z,100700.54
2024-05-09T17:08:04.410Z,100703.46
2024-05-09T17:10:33.906Z,100707.17
2024-05-09T17:13:03.855Z,100705.05
2024-05-09T17:15:32.508Z,100704.73
2024-05-09T17:17:59.535Z,100704.63
2024-05-09T17:20:32.678Z,100703.52
2024-05-09T17:23:03.026Z,100702.42
2024-05-09T17:25:29.889Z,100704.31
2024-05-09T17:27:59.275Z,100705.81
2024-05-09T17:30:32.381Z,100709.84
2024-05-09T17:33:07.460Z,100718.45
2024-05-09T17:35:36.176Z,100724.34
2024-05-09T17:38:03.593Z,100725.19
2024-05-09T17:40:34.001Z,100726.09
2024-05-09T17:43:04.782Z,100727.89
2024-05-09T17:45:32.423Z,100727.63
2024-05-09T17:48:00.077Z,100729.12
2024-05-09T17:50:34.632Z,100730.67
2024-05-09T17:53:03.842Z,100733.31
2024-05-09T17:55:30.780Z,100728.39
2024-05-09T17:57:58.838Z,100730.67
2024-05-09T18:00:36.442Z,100727.80
2024-05-09T18:03:10.813Z,100731.15
2024-05-09T18:05:38.469Z,100732.20
2024-05-09T18:08:08.821Z,100736.41
2024-05-09T18:10:38.949Z,100738.85
2024-05-09T18:13:12.215Z,100735.23
2024-05-09T18:15:39.799Z,100743.78
2024-05-09T18:18:07.852Z,100746.81
2024-05-09T18:20:42.148Z,100749.30
2024-05-09T18:23:14.200Z,100754.88
2024-05-09T18:25:42.002Z,100755.57
2024-05-09T18:28:09.331Z,100758.07
2024-05-09T18:30:37.419Z,100760.66
2024-05-09T18:33:07.492Z,100769.47
2024-05-09T18:35:36.240Z,100778.86
2024-05-09T18:38:05.778Z,100785.02
2024-05-09T18:40:36.291Z,100790.27
2024-05-09T18:43:07.128Z,100797.45
2024-05-09T18:45:38.924Z,100798.78
2024-05-09T18:48:07.828Z,100799.67
2024-05-09T18:50:39.086Z,100801.48
2024-05-09T18:53:12.102Z,100808.07
2024-05-09T18:55:45.011Z,100804.94
2024-05-09T18:58:12.161Z,100803.14
2024-05-09T19:00:41.818Z,100805.69
2024-05-09T19:03:13.819Z,100811.78
2024-05-09T19:05:44.895Z,100818.52
2024-05-09T19:08:15.400Z,100822.41
2024-05-09T19:10:42.990Z,100826.96
2024-05-09T19:13:12.735Z,100829.89
2024-05-09T19:15:42.217Z,100836.56
2024-05-09T19:18:10.922Z,100840.45
2024-05-09T19:20:39.660Z,100840.98
2024-05-09T19:23:07.293Z,100840.92
2024-05-09T19:25:36.147Z,100839.60
2024-05-09T19:28:04.277Z,100836.93
2024-05-09T19:30:38.603Z,100829.35
2024-05-09T19:33:09.466Z,100832.91
2024-05-09T19:35:37.045Z,100837.21
2024-05-09T19:38:06.695Z,100844.43
2024-05-09T19:40:35.642Z,100851.91
2024-05-09T19:43:06.013Z,100855.16
2024-05-09T19:45:35.186Z,100856.69
2024-05-09T19:48:03.426Z,100860.93
2024-05-09T19:50:37.621Z,100867.09
2024-05-09T19:53:12.084Z,100873.89
2024-05-09T19:55:40.197Z,100880.52
2024-05-09T19:58:09.999Z,100876.92
2024-05-09T20:00:41.153Z,100887.43
2024-05-09T20:03:14.973Z,100896.39
2024-05-09T20:05:45.365Z,100902.07
2024-05-09T20:08:12.991Z,100900.01
2024-05-09T20:10:40.048Z,100899.32
2024-05-09T20:13:10.035Z,100900.80
2024-05-09T20:15:37.644Z,100899.90
2024-05-09T20:18:05.643Z,100897.62
2024-05-09T20:20:39.119Z,100901.34
2024-05-09T20:23:09.528Z,100909.77
2024-05-09T20:25:36.720Z,100905.27
2024-05-09T20:28:05.359Z,100903.77
2024-05-09T20:30:36.105Z,100904.73
2024-05-09T20:33:05.452Z,100910.95
2024-05-09T20:35:35.343Z,100911.68
2024-05-09T20:38:06.523Z,100917.47
2024-05-09T20:40:37.533Z,100917.20
2024-05-09T20:43:09.264Z,100908.55
2024-05-09T20:45:36.863Z,100906.42
2024-05-09T20:48:04.735Z,100902.34
2024-05-09T20:50:38.268Z,100899.00
2024-05-09T20:53:10.532Z,100912.11
2024-05-09T20:55:37.372Z,100915.83
2024-05-09T20:58:06.933Z,100919.13
2024-05-09T21:00:58.965Z,100915.26
2024-05-09T21:03:26.380Z,100916.99
2024-05-09T21:05:55.011Z,100915.83
2024-05-09T21:08:22.792Z,100915.61
2024-05-09T21:10:55.311Z,100918.07
2024-05-09T21:13:23.680Z,100921.77
2024-05-09T21:15:51.685Z,100924.53
2024-05-09T21:18:19.173Z,100925.11
2024-05-09T21:20:46.378Z,100931.27
2024-05-09T21:23:13.461Z,100932.34
2024-05-09T21:25:40.272Z,100925.27
2024-05-09T21:28:07.975Z,100921.40
2024-05-09T21:30:41.457Z,100920.98
2024-05-09T21:33:14.802Z,100922.73
2024-05-09T21:36:01.975Z,100927.73
2024-05-09T21:38:33.309Z,100919.44
2024-05-09T21:41:02.506Z,100920.50
2024-05-09T21:43:33.410Z,100924.38
2024-05-09T21:46:01.979Z,100919.39
2024-05-09T21:48:32.011Z,100916.27
2024-05-09T21:50:59.606Z,100915.04
2024-05-09T21:53:31.598Z,100915.52
2024-05-09T21:55:59.128Z,100918.55
2024-05-09T21:58:26.340Z,100917.16
2024-05-09T22:00:57.256Z,100914.52
2024-05-09T22:03:25.967Z,100910.42
2024-05-09T22:05:52.888Z,100910.63
2024-05-09T22:08:19.745Z,100913.48
2024-05-09T22:10:46.666Z,100912.17
2024-05-09T22:13:13.742Z,100916.89
2024-05-09T22:15:42.604Z,100919.92
2024-05-09T22:18:10.814Z,100922.95
2024-05-09T22:20:45.132Z,100919.07
2024-05-09T22:23:13.459Z,100914.20
2024-05-09T22:25:40.339Z,100920.20
2024-05-09T22:28:07.525Z,100923.01
2024-05-09T22:30:38.195Z,100928.31
2024-05-09T22:33:08.455Z,100939.84
2024-05-09T22:35:37.015Z,100980.42
2024-05-09T22:38:04.029Z,100984.56
2024-05-09T22:40:41.655Z,100971.61
2024-05-09T22:43:17.018Z,100959.20
2024-05-09T22:45:44.246Z,100950.29
2024-05-09T22:48:11.266Z,100946.88
2024-05-09T22:50:38.243Z,100935.80
2024-05-09T22:53:05.512Z,100930.60
2024-05-09T22:55:32.396Z,100928.27
2024-05-09T22:57:59.444Z,100925.14
2024-05-09T23:00:31.422Z,100919.40
2024-05-09T23:03:00.969Z,100913.89
2024-05-09T23:05:28.310Z,100913.41
2024-05-09T23:07:55.252Z,100912.77
2024-05-09T23:10:30.815Z,100912.89
2024-05-09T23:13:02.285Z,100906.30
2024-05-09T23:15:29.266Z,100906.09
2024-05-09T23:17:57.118Z,100915.06
2024-05-09T23:22:54.399Z,100913.79
2024-05-09T23:25:21.151Z,100904.66
2024-05-09T23:27:48.075Z,100899.67
2024-05-09T23:30:25.543Z,100892.56
2024-05-09T23:32:59.999Z,100884.13
2024-05-09T23:35:27.151Z,100887.10
2024-05-09T23:37:57.037Z,100885.49
2024-05-09T23:40:36.335Z,100886.83
2024-05-09T23:43:06.539Z,100888.38
2024-05-09T23:45:33.432Z,100888.58
2024-05-09T23:48:00.730Z,100886.73
2024-05-09T23:50:34.357Z,100887.31
2024-05-09T23:53:05.203Z,100888.69
2024-05-09T23:55:32.643Z,100895.38
2024-05-09T23:57:59.931Z,100897.55
